sensor_id;sensor_type;location;lat;lon;timestamp;P1;durP1;ratioP1;P2;durP2;ratioP2
7883;SDS011;3987;51.458;7.238;2022-08-01T00:00:31;18.07;;;16.23;;
7883;SDS011;3987;51.458;7.238;2022-08-01T00:02:56;18.00;;;16.30;;
7883;SDS011;3987;51.458;7.238;2022-08-01T00:05:22;18.43;;;16.67;;
7883;SDS011;3987;51.458;7.238;2022-08-01T00:07:47;17.97;;;16.27;;
7883;SDS011;3987;51.458;7.238;2022-08-01T00:10:14;17.40;;;15.67;;
7883;SDS011;3987;51.458;7.238;2022-08-01T00:12:40;18.50;;;16.57;;
7883;SDS011;3987;51.458;7.238;2022-08-01T00:15:07;16.50;;;15.07;;
7883;SDS011;3987;51.458;7.238;2022-08-01T00:17:33;17.57;;;15.67;;
7883;SDS011;3987;51.458;7.238;2022-08-01T00:19:58;17.20;;;15.70;;
7883;SDS011;3987;51.458;7.238;2022-08-01T00:22:24;17.47;;;15.83;;
7883;SDS011;3987;51.458;7.238;2022-08-01T00:24:49;18.23;;;16.33;;
7883;SDS011;3987;51.458;7.238;2022-08-01T00:27:15;18.40;;;16.77;;
7883;SDS011;3987;51.458;7.238;2022-08-01T00:29:40;19.40;;;17.53;;
7883;SDS011;3987;51.458;7.238;2022-08-01T00:32:06;18.63;;;16.83;;
7883;SDS011;3987;51.458;7.238;2022-08-01T00:34:31;18.67;;;16.87;;
7883;SDS011;3987;51.458;7.238;2022-08-01T00:36:56;20.20;;;18.37;;
7883;SDS011;3987;51.458;7.238;2022-08-01T00:39:22;26.10;;;20.80;;
7883;SDS011;3987;51.458;7.238;2022-08-01T00:41:47;22.83;;;20.50;;
7883;SDS011;3987;51.458;7.238;2022-08-01T00:44:13;25.67;;;21.90;;
7883;SDS011;3987;51.458;7.238;2022-08-01T00:46:38;23.97;;;21.63;;
7883;SDS011;3987;51.458;7.238;2022-08-01T00:49:04;25.93;;;21.83;;
7883;SDS011;3987;51.458;7.238;2022-08-01T00:51:31;26.00;;;23.23;;
7883;SDS011;3987;51.458;7.238;2022-08-01T00:53:56;27.27;;;24.33;;
7883;SDS011;3987;51.458;7.238;2022-08-01T00:56:24;27.97;;;24.57;;
7883;SDS011;3987;51.458;7.238;2022-08-01T00:58:50;27.83;;;24.70;;
7883;SDS011;3987;51.458;7.238;2022-08-01T01:01:16;28.53;;;25.53;;
7883;SDS011;3987;51.458;7.238;2022-08-01T01:03:43;29.53;;;26.37;;
7883;SDS011;3987;51.458;7.238;2022-08-01T01:06:26;31.47;;;27.10;;
7883;SDS011;3987;51.458;7.238;2022-08-01T01:09:24;31.73;;;25.63;;
7883;SDS011;3987;51.458;7.238;2022-08-01T01:12:17;30.93;;;25.60;;
7883;SDS011;3987;51.458;7.238;2022-08-01T01:14:55;30.87;;;26.70;;
7883;SDS011;3987;51.458;7.238;2022-08-01T01:17:27;33.27;;;27.47;;
7883;SDS011;3987;51.458;7.238;2022-08-01T01:19:57;34.37;;;27.43;;
7883;SDS011;3987;51.458;7.238;2022-08-01T01:28:35;39.13;;;27.40;;
7883;SDS011;3987;51.458;7.238;2022-08-01T01:31:14;36.23;;;28.43;;
7883;SDS011;3987;51.458;7.238;2022-08-01T01:33:41;33.50;;;27.30;;
7883;SDS011;3987;51.458;7.238;2022-08-01T01:36:08;35.30;;;27.00;;
7883;SDS011;3987;51.458;7.238;2022-08-01T01:38:36;36.50;;;27.37;;
7883;SDS011;3987;51.458;7.238;2022-08-01T01:41:07;31.17;;;27.03;;
7883;SDS011;3987;51.458;7.238;2022-08-01T01:43:33;36.90;;;27.77;;
7883;SDS011;3987;51.458;7.238;2022-08-01T01:46:00;34.43;;;27.77;;
7883;SDS011;3987;51.458;7.238;2022-08-01T01:48:27;33.00;;;26.63;;
7883;SDS011;3987;51.458;7.238;2022-08-01T01:50:54;31.03;;;25.77;;
7883;SDS011;3987;51.458;7.238;2022-08-01T01:53:21;35.27;;;26.53;;
7883;SDS011;3987;51.458;7.238;2022-08-01T01:55:50;35.57;;;26.00;;
7883;SDS011;3987;51.458;7.238;2022-08-01T01:58:17;32.53;;;26.43;;
7883;SDS011;3987;51.458;7.238;2022-08-01T02:00:45;36.37;;;25.90;;
7883;SDS011;3987;51.458;7.238;2022-08-01T02:03:12;32.90;;;26.33;;
7883;SDS011;3987;51.458;7.238;2022-08-01T02:05:38;34.00;;;27.07;;
7883;SDS011;3987;51.458;7.238;2022-08-01T02:08:04;36.47;;;26.77;;
7883;SDS011;3987;51.458;7.238;2022-08-01T02:10:31;34.53;;;27.67;;
7883;SDS011;3987;51.458;7.238;2022-08-01T02:13:00;35.53;;;26.93;;
7883;SDS011;3987;51.458;7.238;2022-08-01T02:15:28;30.53;;;25.13;;
7883;SDS011;3987;51.458;7.238;2022-08-01T02:17:55;30.57;;;27.33;;
7883;SDS011;3987;51.458;7.238;2022-08-01T02:20:21;34.77;;;26.40;;
7883;SDS011;3987;51.458;7.238;2022-08-01T02:22:48;31.30;;;25.13;;
7883;SDS011;3987;51.458;7.238;2022-08-01T02:25:19;33.20;;;26.43;;
7883;SDS011;3987;51.458;7.238;2022-08-01T02:27:58;35.13;;;25.77;;
7883;SDS011;3987;51.458;7.238;2022-08-01T02:30:26;35.07;;;27.03;;
7883;SDS011;3987;51.458;7.238;2022-08-01T02:32:59;35.00;;;26.30;;
7883;SDS011;3987;51.458;7.238;2022-08-01T02:35:34;36.03;;;26.50;;
7883;SDS011;3987;51.458;7.238;2022-08-01T02:38:02;37.17;;;26.27;;
7883;SDS011;3987;51.458;7.238;2022-08-01T02:40:29;37.27;;;27.00;;
7883;SDS011;3987;51.458;7.238;2022-08-01T02:42:57;33.67;;;24.93;;
7883;SDS011;3987;51.458;7.238;2022-08-01T02:45:24;40.57;;;27.13;;
7883;SDS011;3987;51.458;7.238;2022-08-01T02:47:51;38.07;;;27.13;;
7883;SDS011;3987;51.458;7.238;2022-08-01T02:50:19;34.33;;;25.93;;
7883;SDS011;3987;51.458;7.238;2022-08-01T02:52:46;33.33;;;26.77;;
7883;SDS011;3987;51.458;7.238;2022-08-01T02:55:13;39.57;;;27.33;;
7883;SDS011;3987;51.458;7.238;2022-08-01T02:57:40;43.20;;;28.03;;
7883;SDS011;3987;51.458;7.238;2022-08-01T03:00:06;34.07;;;25.47;;
7883;SDS011;3987;51.458;7.238;2022-08-01T03:02:32;41.03;;;26.43;;
7883;SDS011;3987;51.458;7.238;2022-08-01T03:04:59;43.00;;;27.10;;
7883;SDS011;3987;51.458;7.238;2022-08-01T03:07:26;40.53;;;26.37;;
7883;SDS011;3987;51.458;7.238;2022-08-01T03:09:55;34.83;;;25.97;;
7883;SDS011;3987;51.458;7.238;2022-08-01T03:12:22;35.70;;;26.80;;
7883;SDS011;3987;51.458;7.238;2022-08-01T03:14:50;40.97;;;27.03;;
7883;SDS011;3987;51.458;7.238;2022-08-01T03:17:18;40.70;;;28.07;;
7883;SDS011;3987;51.458;7.238;2022-08-01T03:19:43;39.50;;;27.47;;
7883;SDS011;3987;51.458;7.238;2022-08-01T03:22:11;33.37;;;25.57;;
7883;SDS011;3987;51.458;7.238;2022-08-01T03:24:37;36.10;;;27.03;;
7883;SDS011;3987;51.458;7.238;2022-08-01T03:27:04;38.60;;;28.00;;
7883;SDS011;3987;51.458;7.238;2022-08-01T03:29:31;46.67;;;28.83;;
7883;SDS011;3987;51.458;7.238;2022-08-01T03:31:57;46.30;;;29.57;;
7883;SDS011;3987;51.458;7.238;2022-08-01T03:34:23;45.63;;;28.97;;
7883;SDS011;3987;51.458;7.238;2022-08-01T03:37:09;36.13;;;28.03;;
7883;SDS011;3987;51.458;7.238;2022-08-01T03:39:40;43.07;;;29.83;;
7883;SDS011;3987;51.458;7.238;2022-08-01T03:42:12;43.73;;;29.97;;
7883;SDS011;3987;51.458;7.238;2022-08-01T03:44:40;39.90;;;30.00;;
7883;SDS011;3987;51.458;7.238;2022-08-01T03:47:07;42.53;;;29.67;;
7883;SDS011;3987;51.458;7.238;2022-08-01T03:49:41;42.37;;;29.30;;
7883;SDS011;3987;51.458;7.238;2022-08-01T03:52:08;44.50;;;29.80;;
7883;SDS011;3987;51.458;7.238;2022-08-01T03:54:42;41.80;;;29.37;;
7883;SDS011;3987;51.458;7.238;2022-08-01T03:57:11;42.07;;;28.73;;
7883;SDS011;3987;51.458;7.238;2022-08-01T03:59:37;46.87;;;29.93;;
7883;SDS011;3987;51.458;7.238;2022-08-01T04:02:03;43.10;;;27.10;;
7883;SDS011;3987;51.458;7.238;2022-08-01T04:04:29;38.43;;;26.37;;
7883;SDS011;3987;51.458;7.238;2022-08-01T04:06:55;38.70;;;26.33;;
7883;SDS011;3987;51.458;7.238;2022-08-01T04:09:20;37.87;;;25.83;;
7883;SDS011;3987;51.458;7.238;2022-08-01T04:11:46;35.97;;;26.37;;
7883;SDS011;3987;51.458;7.238;2022-08-01T04:14:12;33.87;;;26.10;;
7883;SDS011;3987;51.458;7.238;2022-08-01T04:16:38;31.40;;;24.17;;
7883;SDS011;3987;51.458;7.238;2022-08-01T04:19:03;37.30;;;24.27;;
7883;SDS011;3987;51.458;7.238;2022-08-01T04:21:32;35.50;;;25.20;;
7883;SDS011;3987;51.458;7.238;2022-08-01T04:23:58;34.37;;;24.37;;
7883;SDS011;3987;51.458;7.238;2022-08-01T04:26:25;32.53;;;24.27;;
7883;SDS011;3987;51.458;7.238;2022-08-01T04:28:52;30.43;;;23.00;;
7883;SDS011;3987;51.458;7.238;2022-08-01T04:31:19;31.17;;;21.47;;
7883;SDS011;3987;51.458;7.238;2022-08-01T04:33:47;30.20;;;20.77;;
7883;SDS011;3987;51.458;7.238;2022-08-01T04:36:15;27.17;;;20.77;;
7883;SDS011;3987;51.458;7.238;2022-08-01T04:38:42;29.57;;;20.13;;
7883;SDS011;3987;51.458;7.238;2022-08-01T04:41:11;30.37;;;20.30;;
7883;SDS011;3987;51.458;7.238;2022-08-01T04:43:38;26.30;;;18.83;;
7883;SDS011;3987;51.458;7.238;2022-08-01T04:46:03;25.70;;;19.30;;
7883;SDS011;3987;51.458;7.238;2022-08-01T04:48:31;27.90;;;18.87;;
7883;SDS011;3987;51.458;7.238;2022-08-01T04:50:59;24.33;;;18.67;;
7883;SDS011;3987;51.458;7.238;2022-08-01T04:53:24;28.17;;;18.43;;
7883;SDS011;3987;51.458;7.238;2022-08-01T04:55:51;23.27;;;19.20;;
7883;SDS011;3987;51.458;7.238;2022-08-01T04:58:16;26.10;;;18.33;;
7883;SDS011;3987;51.458;7.238;2022-08-01T05:00:41;20.53;;;18.30;;
7883;SDS011;3987;51.458;7.238;2022-08-01T05:03:07;23.00;;;19.80;;
7883;SDS011;3987;51.458;7.238;2022-08-01T05:05:32;25.27;;;18.73;;
7883;SDS011;3987;51.458;7.238;2022-08-01T05:07:58;27.07;;;19.07;;
7883;SDS011;3987;51.458;7.238;2022-08-01T05:10:25;22.90;;;19.50;;
7883;SDS011;3987;51.458;7.238;2022-08-01T05:12:51;26.63;;;18.77;;
7883;SDS011;3987;51.458;7.238;2022-08-01T05:15:16;27.73;;;18.83;;
7883;SDS011;3987;51.458;7.238;2022-08-01T05:17:42;25.40;;;19.00;;
7883;SDS011;3987;51.458;7.238;2022-08-01T05:20:07;29.37;;;19.93;;
7883;SDS011;3987;51.458;7.238;2022-08-01T05:22:33;21.67;;;18.70;;
7883;SDS011;3987;51.458;7.238;2022-08-01T05:24:59;22.30;;;18.07;;
7883;SDS011;3987;51.458;7.238;2022-08-01T05:27:25;26.23;;;17.90;;
7883;SDS011;3987;51.458;7.238;2022-08-01T05:29:50;23.50;;;18.37;;
7883;SDS011;3987;51.458;7.238;2022-08-01T05:32:16;24.90;;;17.53;;
7883;SDS011;3987;51.458;7.238;2022-08-01T05:34:41;23.43;;;16.90;;
7883;SDS011;3987;51.458;7.238;2022-08-01T05:37:07;24.33;;;17.70;;
7883;SDS011;3987;51.458;7.238;2022-08-01T05:39:32;25.77;;;17.87;;
7883;SDS011;3987;51.458;7.238;2022-08-01T05:41:58;23.00;;;18.07;;
7883;SDS011;3987;51.458;7.238;2022-08-01T05:44:23;23.57;;;17.77;;
7883;SDS011;3987;51.458;7.238;2022-08-01T05:46:48;22.77;;;18.77;;
7883;SDS011;3987;51.458;7.238;2022-08-01T05:49:14;24.60;;;17.57;;
7883;SDS011;3987;51.458;7.238;2022-08-01T05:51:39;26.23;;;18.50;;
7883;SDS011;3987;51.458;7.238;2022-08-01T05:54:05;24.40;;;18.70;;
7883;SDS011;3987;51.458;7.238;2022-08-01T05:56:30;22.97;;;18.87;;
7883;SDS011;3987;51.458;7.238;2022-08-01T05:58:56;21.80;;;18.40;;
7883;SDS011;3987;51.458;7.238;2022-08-01T06:01:22;26.17;;;19.57;;
7883;SDS011;3987;51.458;7.238;2022-08-01T06:03:48;24.47;;;19.17;;
7883;SDS011;3987;51.458;7.238;2022-08-01T06:06:13;26.37;;;18.83;;
7883;SDS011;3987;51.458;7.238;2022-08-01T06:08:41;26.10;;;19.53;;
7883;SDS011;3987;51.458;7.238;2022-08-01T06:11:07;22.77;;;19.80;;
7883;SDS011;3987;51.458;7.238;2022-08-01T06:13:32;26.03;;;20.17;;
7883;SDS011;3987;51.458;7.238;2022-08-01T06:15:58;29.07;;;20.43;;
7883;SDS011;3987;51.458;7.238;2022-08-01T06:18:23;32.27;;;23.20;;
7883;SDS011;3987;51.458;7.238;2022-08-01T06:20:49;30.40;;;22.57;;
7883;SDS011;3987;51.458;7.238;2022-08-01T06:23:14;31.50;;;23.17;;
7883;SDS011;3987;51.458;7.238;2022-08-01T06:25:41;29.47;;;22.63;;
7883;SDS011;3987;51.458;7.238;2022-08-01T06:28:07;29.97;;;23.30;;
7883;SDS011;3987;51.458;7.238;2022-08-01T06:30:33;26.70;;;22.87;;
7883;SDS011;3987;51.458;7.238;2022-08-01T06:32:58;29.03;;;22.17;;
7883;SDS011;3987;51.458;7.238;2022-08-01T06:35:25;29.03;;;21.83;;
7883;SDS011;3987;51.458;7.238;2022-08-01T06:37:51;30.37;;;22.07;;
7883;SDS011;3987;51.458;7.238;2022-08-01T06:40:16;23.77;;;19.17;;
7883;SDS011;3987;51.458;7.238;2022-08-01T06:42:43;24.77;;;19.67;;
7883;SDS011;3987;51.458;7.238;2022-08-01T06:45:11;20.40;;;17.53;;
7883;SDS011;3987;51.458;7.238;2022-08-01T06:47:40;17.50;;;15.70;;
7883;SDS011;3987;51.458;7.238;2022-08-01T06:50:07;17.70;;;15.97;;
7883;SDS011;3987;51.458;7.238;2022-08-01T06:52:33;20.20;;;16.40;;
7883;SDS011;3987;51.458;7.238;2022-08-01T06:54:59;16.93;;;15.17;;
7883;SDS011;3987;51.458;7.238;2022-08-01T06:57:25;19.57;;;17.23;;
7883;SDS011;3987;51.458;7.238;2022-08-01T06:59:50;18.13;;;16.03;;
7883;SDS011;3987;51.458;7.238;2022-08-01T07:02:16;19.40;;;17.40;;
7883;SDS011;3987;51.458;7.238;2022-08-01T07:04:41;17.43;;;15.77;;
7883;SDS011;3987;51.458;7.238;2022-08-01T07:07:07;18.90;;;16.07;;
7883;SDS011;3987;51.458;7.238;2022-08-01T07:09:32;17.23;;;13.93;;
7883;SDS011;3987;51.458;7.238;2022-08-01T07:11:58;13.00;;;11.87;;
7883;SDS011;3987;51.458;7.238;2022-08-01T07:14:23;12.37;;;11.47;;
7883;SDS011;3987;51.458;7.238;2022-08-01T07:16:49;12.57;;;11.57;;
7883;SDS011;3987;51.458;7.238;2022-08-01T07:19:15;11.47;;;10.37;;
7883;SDS011;3987;51.458;7.238;2022-08-01T07:21:40;10.87;;;10.10;;
7883;SDS011;3987;51.458;7.238;2022-08-01T07:24:10;10.47;;;9.67;;
7883;SDS011;3987;51.458;7.238;2022-08-01T07:26:44;10.23;;;9.37;;
7883;SDS011;3987;51.458;7.238;2022-08-01T07:29:11;8.63;;;8.03;;
7883;SDS011;3987;51.458;7.238;2022-08-01T07:31:37;7.83;;;7.30;;
7883;SDS011;3987;51.458;7.238;2022-08-01T07:34:02;8.20;;;7.70;;
7883;SDS011;3987;51.458;7.238;2022-08-01T07:36:28;8.77;;;8.00;;
7883;SDS011;3987;51.458;7.238;2022-08-01T07:38:53;7.17;;;6.67;;
7883;SDS011;3987;51.458;7.238;2022-08-01T07:41:18;6.73;;;6.50;;
7883;SDS011;3987;51.458;7.238;2022-08-01T07:43:44;6.10;;;5.77;;
7883;SDS011;3987;51.458;7.238;2022-08-01T07:46:09;8.03;;;5.30;;
7883;SDS011;3987;51.458;7.238;2022-08-01T07:48:35;4.93;;;4.60;;
7883;SDS011;3987;51.458;7.238;2022-08-01T07:51:00;4.97;;;4.50;;
7883;SDS011;3987;51.458;7.238;2022-08-01T07:53:25;4.93;;;4.50;;
7883;SDS011;3987;51.458;7.238;2022-08-01T07:55:51;4.20;;;4.00;;
7883;SDS011;3987;51.458;7.238;2022-08-01T07:58:17;3.97;;;3.67;;
7883;SDS011;3987;51.458;7.238;2022-08-01T08:00:42;3.67;;;3.57;;
7883;SDS011;3987;51.458;7.238;2022-08-01T08:03:08;3.37;;;3.13;;
7883;SDS011;3987;51.458;7.238;2022-08-01T08:05:33;4.80;;;3.30;;
7883;SDS011;3987;51.458;7.238;2022-08-01T08:08:04;3.33;;;3.23;;
7883;SDS011;3987;51.458;7.238;2022-08-01T08:10:30;3.10;;;3.00;;
7883;SDS011;3987;51.458;7.238;2022-08-01T08:12:56;3.00;;;2.80;;
7883;SDS011;3987;51.458;7.238;2022-08-01T08:15:21;3.47;;;2.40;;
7883;SDS011;3987;51.458;7.238;2022-08-01T08:17:47;2.70;;;2.40;;
7883;SDS011;3987;51.458;7.238;2022-08-01T08:20:12;2.23;;;2.23;;
7883;SDS011;3987;51.458;7.238;2022-08-01T08:22:38;1.63;;;1.63;;
7883;SDS011;3987;51.458;7.238;2022-08-01T08:25:03;1.97;;;1.87;;
7883;SDS011;3987;51.458;7.238;2022-08-01T08:27:29;1.63;;;1.63;;
7883;SDS011;3987;51.458;7.238;2022-08-01T08:29:55;1.80;;;1.70;;
7883;SDS011;3987;51.458;7.238;2022-08-01T08:32:21;1.80;;;1.80;;
7883;SDS011;3987;51.458;7.238;2022-08-01T08:34:46;2.13;;;1.97;;
7883;SDS011;3987;51.458;7.238;2022-08-01T08:37:11;1.40;;;1.40;;
7883;SDS011;3987;51.458;7.238;2022-08-01T08:39:37;2.67;;;1.40;;
7883;SDS011;3987;51.458;7.238;2022-08-01T08:42:06;1.90;;;1.40;;
7883;SDS011;3987;51.458;7.238;2022-08-01T08:44:32;0.90;;;0.90;;
7883;SDS011;3987;51.458;7.238;2022-08-01T08:46:57;1.20;;;1.20;;
7883;SDS011;3987;51.458;7.238;2022-08-01T08:49:24;1.00;;;0.90;;
7883;SDS011;3987;51.458;7.238;2022-08-01T08:51:52;2.43;;;1.60;;
7883;SDS011;3987;51.458;7.238;2022-08-01T08:54:19;1.00;;;1.00;;
7883;SDS011;3987;51.458;7.238;2022-08-01T08:56:47;1.70;;;1.60;;
7883;SDS011;3987;51.458;7.238;2022-08-01T08:59:14;1.90;;;1.30;;
7883;SDS011;3987;51.458;7.238;2022-08-01T09:01:40;1.40;;;1.40;;
7883;SDS011;3987;51.458;7.238;2022-08-01T09:04:06;2.03;;;1.70;;
7883;SDS011;3987;51.458;7.238;2022-08-01T09:06:32;1.90;;;1.90;;
7883;SDS011;3987;51.458;7.238;2022-08-01T09:08:57;1.73;;;1.73;;
7883;SDS011;3987;51.458;7.238;2022-08-01T09:11:23;1.43;;;1.43;;
7883;SDS011;3987;51.458;7.238;2022-08-01T09:14:08;1.67;;;1.57;;
7883;SDS011;3987;51.458;7.238;2022-08-01T09:16:58;1.77;;;1.40;;
7883;SDS011;3987;51.458;7.238;2022-08-01T09:19:37;2.50;;;1.57;;
7883;SDS011;3987;51.458;7.238;2022-08-01T09:22:05;1.90;;;1.90;;
7883;SDS011;3987;51.458;7.238;2022-08-01T09:24:32;1.67;;;1.57;;
7883;SDS011;3987;51.458;7.238;2022-08-01T09:26:59;1.33;;;1.33;;
7883;SDS011;3987;51.458;7.238;2022-08-01T09:29:26;1.33;;;1.20;;
7883;SDS011;3987;51.458;7.238;2022-08-01T09:31:54;1.40;;;1.40;;
7883;SDS011;3987;51.458;7.238;2022-08-01T09:34:29;2.40;;;2.33;;
7883;SDS011;3987;51.458;7.238;2022-08-01T09:36:57;1.80;;;1.80;;
7883;SDS011;3987;51.458;7.238;2022-08-01T09:39:24;1.60;;;1.60;;
7883;SDS011;3987;51.458;7.238;2022-08-01T09:41:54;1.33;;;1.23;;
7883;SDS011;3987;51.458;7.238;2022-08-01T09:44:35;3.80;;;1.10;;
7883;SDS011;3987;51.458;7.238;2022-08-01T09:47:01;1.70;;;1.00;;
7883;SDS011;3987;51.458;7.238;2022-08-01T09:49:28;2.17;;;1.03;;
7883;SDS011;3987;51.458;7.238;2022-08-01T09:51:55;1.40;;;1.30;;
7883;SDS011;3987;51.458;7.238;2022-08-01T09:54:29;0.80;;;0.80;;
7883;SDS011;3987;51.458;7.238;2022-08-01T09:57:06;0.97;;;0.97;;
7883;SDS011;3987;51.458;7.238;2022-08-01T09:59:37;0.97;;;0.97;;
7883;SDS011;3987;51.458;7.238;2022-08-01T10:02:06;0.60;;;0.50;;
7883;SDS011;3987;51.458;7.238;2022-08-01T10:04:32;0.73;;;0.73;;
7883;SDS011;3987;51.458;7.238;2022-08-01T10:07:03;0.60;;;0.60;;
7883;SDS011;3987;51.458;7.238;2022-08-01T10:09:31;0.77;;;0.77;;
7883;SDS011;3987;51.458;7.238;2022-08-01T10:12:00;2.87;;;0.90;;
7883;SDS011;3987;51.458;7.238;2022-08-01T10:14:27;0.70;;;0.70;;
7883;SDS011;3987;51.458;7.238;2022-08-01T10:16:53;3.03;;;1.33;;
7883;SDS011;3987;51.458;7.238;2022-08-01T10:19:22;0.70;;;0.63;;
7883;SDS011;3987;51.458;7.238;2022-08-01T10:21:48;1.10;;;0.83;;
7883;SDS011;3987;51.458;7.238;2022-08-01T10:24:16;2.10;;;0.77;;
7883;SDS011;3987;51.458;7.238;2022-08-01T10:26:44;0.83;;;0.70;;
7883;SDS011;3987;51.458;7.238;2022-08-01T10:29:20;0.90;;;0.80;;
7883;SDS011;3987;51.458;7.238;2022-08-01T10:31:46;0.80;;;0.80;;
7883;SDS011;3987;51.458;7.238;2022-08-01T10:34:15;0.60;;;0.60;;
7883;SDS011;3987;51.458;7.238;2022-08-01T10:36:44;0.63;;;0.63;;
7883;SDS011;3987;51.458;7.238;2022-08-01T10:39:10;0.60;;;0.60;;
7883;SDS011;3987;51.458;7.238;2022-08-01T10:41:36;0.90;;;0.90;;
7883;SDS011;3987;51.458;7.238;2022-08-01T10:44:03;1.00;;;1.00;;
7883;SDS011;3987;51.458;7.238;2022-08-01T10:46:30;2.93;;;0.90;;
7883;SDS011;3987;51.458;7.238;2022-08-01T10:49:03;0.80;;;0.80;;
7883;SDS011;3987;51.458;7.238;2022-08-01T10:51:31;1.10;;;1.10;;
7883;SDS011;3987;51.458;7.238;2022-08-01T10:54:02;0.83;;;0.83;;
7883;SDS011;3987;51.458;7.238;2022-08-01T10:56:50;0.80;;;0.80;;
7883;SDS011;3987;51.458;7.238;2022-08-01T10:59:26;0.87;;;0.87;;
7883;SDS011;3987;51.458;7.238;2022-08-01T11:02:03;0.70;;;0.70;;
7883;SDS011;3987;51.458;7.238;2022-08-01T11:04:41;0.80;;;0.80;;
7883;SDS011;3987;51.458;7.238;2022-08-01T11:07:17;0.80;;;0.80;;
7883;SDS011;3987;51.458;7.238;2022-08-01T11:09:48;0.70;;;0.70;;
7883;SDS011;3987;51.458;7.238;2022-08-01T11:12:39;2.00;;;0.43;;
7883;SDS011;3987;51.458;7.238;2022-08-01T11:17:33;0.37;;;0.37;;
7883;SDS011;3987;51.458;7.238;2022-08-01T11:23:27;0.40;;;0.40;;
7883;SDS011;3987;51.458;7.238;2022-08-01T11:30:42;0.30;;;0.30;;
7883;SDS011;3987;51.458;7.238;2022-08-01T11:33:12;0.67;;;0.53;;
7883;SDS011;3987;51.458;7.238;2022-08-01T11:36:16;0.40;;;0.40;;
7883;SDS011;3987;51.458;7.238;2022-08-01T11:38:36;0.83;;;0.30;;
7883;SDS011;3987;51.458;7.238;2022-08-01T11:41:11;0.90;;;0.30;;
7883;SDS011;3987;51.458;7.238;2022-08-01T11:51:58;0.30;;;0.30;;
7883;SDS011;3987;51.458;7.238;2022-08-01T11:54:28;0.40;;;0.40;;
7883;SDS011;3987;51.458;7.238;2022-08-01T11:56:55;0.30;;;0.30;;
7883;SDS011;3987;51.458;7.238;2022-08-01T11:59:21;1.67;;;0.20;;
7883;SDS011;3987;51.458;7.238;2022-08-01T12:01:47;0.30;;;0.30;;
7883;SDS011;3987;51.458;7.238;2022-08-01T12:04:13;0.30;;;0.30;;
7883;SDS011;3987;51.458;7.238;2022-08-01T12:06:38;0.30;;;0.30;;
7883;SDS011;3987;51.458;7.238;2022-08-01T12:09:17;0.40;;;0.40;;
7883;SDS011;3987;51.458;7.238;2022-08-01T12:11:46;0.50;;;0.50;;
7883;SDS011;3987;51.458;7.238;2022-08-01T12:14:18;1.03;;;0.30;;
7883;SDS011;3987;51.458;7.238;2022-08-01T12:16:52;1.10;;;0.30;;
7883;SDS011;3987;51.458;7.238;2022-08-01T12:19:21;0.57;;;0.57;;
7883;SDS011;3987;51.458;7.238;2022-08-01T12:24:36;0.30;;;0.30;;
7883;SDS011;3987;51.458;7.238;2022-08-01T12:27:03;0.20;;;0.20;;
7883;SDS011;3987;51.458;7.238;2022-08-01T12:29:33;0.60;;;0.10;;
7883;SDS011;3987;51.458;7.238;2022-08-01T12:32:03;0.30;;;0.30;;
7883;SDS011;3987;51.458;7.238;2022-08-01T12:34:29;0.67;;;0.40;;
7883;SDS011;3987;51.458;7.238;2022-08-01T12:36:58;0.77;;;0.10;;
7883;SDS011;3987;51.458;7.238;2022-08-01T12:39:34;0.20;;;0.20;;
7883;SDS011;3987;51.458;7.238;2022-08-01T12:41:59;0.40;;;0.40;;
7883;SDS011;3987;51.458;7.238;2022-08-01T12:44:26;0.30;;;0.30;;
7883;SDS011;3987;51.458;7.238;2022-08-01T12:46:52;0.30;;;0.30;;
7883;SDS011;3987;51.458;7.238;2022-08-01T12:49:18;1.33;;;0.30;;
7883;SDS011;3987;51.458;7.238;2022-08-01T12:51:44;0.30;;;0.30;;
7883;SDS011;3987;51.458;7.238;2022-08-01T12:54:09;0.20;;;0.20;;
7883;SDS011;3987;51.458;7.238;2022-08-01T12:56:35;0.23;;;0.23;;
7883;SDS011;3987;51.458;7.238;2022-08-01T12:59:00;0.20;;;0.20;;
7883;SDS011;3987;51.458;7.238;2022-08-01T13:01:26;0.30;;;0.30;;
7883;SDS011;3987;51.458;7.238;2022-08-01T13:04:01;2.60;;;0.23;;
7883;SDS011;3987;51.458;7.238;2022-08-01T13:06:29;0.30;;;0.23;;
7883;SDS011;3987;51.458;7.238;2022-08-01T13:08:55;1.00;;;0.47;;
7883;SDS011;3987;51.458;7.238;2022-08-01T13:11:29;0.30;;;0.30;;
7883;SDS011;3987;51.458;7.238;2022-08-01T13:13:55;0.23;;;0.23;;
7883;SDS011;3987;51.458;7.238;2022-08-01T13:16:23;0.20;;;0.20;;
7883;SDS011;3987;51.458;7.238;2022-08-01T13:18:53;0.17;;;0.17;;
7883;SDS011;3987;51.458;7.238;2022-08-01T13:21:24;0.50;;;0.20;;
7883;SDS011;3987;51.458;7.238;2022-08-01T13:29:35;0.20;;;0.20;;
7883;SDS011;3987;51.458;7.238;2022-08-01T13:32:13;0.30;;;0.20;;
7883;SDS011;3987;51.458;7.238;2022-08-01T13:34:39;0.60;;;0.20;;
7883;SDS011;3987;51.458;7.238;2022-08-01T13:37:05;0.50;;;0.30;;
7883;SDS011;3987;51.458;7.238;2022-08-01T13:39:33;0.27;;;0.20;;
7883;SDS011;3987;51.458;7.238;2022-08-01T13:42:13;0.30;;;0.30;;
7883;SDS011;3987;51.458;7.238;2022-08-01T13:44:39;0.50;;;0.50;;
7883;SDS011;3987;51.458;7.238;2022-08-01T13:47:05;0.30;;;0.30;;
7883;SDS011;3987;51.458;7.238;2022-08-01T13:49:31;0.40;;;0.40;;
7883;SDS011;3987;51.458;7.238;2022-08-01T13:51:56;0.37;;;0.37;;
7883;SDS011;3987;51.458;7.238;2022-08-01T13:54:22;0.73;;;0.60;;
7883;SDS011;3987;51.458;7.238;2022-08-01T13:56:48;0.40;;;0.40;;
7883;SDS011;3987;51.458;7.238;2022-08-01T13:59:14;0.43;;;0.43;;
7883;SDS011;3987;51.458;7.238;2022-08-01T14:01:39;0.30;;;0.30;;
7883;SDS011;3987;51.458;7.238;2022-08-01T14:04:05;1.07;;;0.57;;
7883;SDS011;3987;51.458;7.238;2022-08-01T14:06:31;0.50;;;0.50;;
7883;SDS011;3987;51.458;7.238;2022-08-01T14:08:56;0.50;;;0.50;;
7883;SDS011;3987;51.458;7.238;2022-08-01T14:11:22;0.63;;;0.53;;
7883;SDS011;3987;51.458;7.238;2022-08-01T14:13:48;0.30;;;0.30;;
7883;SDS011;3987;51.458;7.238;2022-08-01T14:16:13;0.40;;;0.40;;
7883;SDS011;3987;51.458;7.238;2022-08-01T14:18:39;1.43;;;0.50;;
7883;SDS011;3987;51.458;7.238;2022-08-01T14:21:04;1.13;;;0.50;;
7883;SDS011;3987;51.458;7.238;2022-08-01T14:23:30;1.03;;;0.50;;
7883;SDS011;3987;51.458;7.238;2022-08-01T14:25:55;0.43;;;0.33;;
7883;SDS011;3987;51.458;7.238;2022-08-01T14:28:20;0.50;;;0.50;;
7883;SDS011;3987;51.458;7.238;2022-08-01T14:30:46;0.40;;;0.40;;
7883;SDS011;3987;51.458;7.238;2022-08-01T14:33:14;0.40;;;0.40;;
7883;SDS011;3987;51.458;7.238;2022-08-01T14:35:40;0.50;;;0.50;;
7883;SDS011;3987;51.458;7.238;2022-08-01T14:38:06;0.63;;;0.60;;
7883;SDS011;3987;51.458;7.238;2022-08-01T14:40:32;0.60;;;0.60;;
7883;SDS011;3987;51.458;7.238;2022-08-01T14:42:58;0.40;;;0.40;;
7883;SDS011;3987;51.458;7.238;2022-08-01T14:45:26;0.80;;;0.30;;
7883;SDS011;3987;51.458;7.238;2022-08-01T14:47:51;0.43;;;0.43;;
7883;SDS011;3987;51.458;7.238;2022-08-01T14:50:17;0.60;;;0.60;;
7883;SDS011;3987;51.458;7.238;2022-08-01T14:52:42;0.67;;;0.67;;
7883;SDS011;3987;51.458;7.238;2022-08-01T14:55:08;0.50;;;0.50;;
7883;SDS011;3987;51.458;7.238;2022-08-01T14:57:35;0.40;;;0.40;;
7883;SDS011;3987;51.458;7.238;2022-08-01T15:00:01;0.50;;;0.50;;
7883;SDS011;3987;51.458;7.238;2022-08-01T15:02:28;0.47;;;0.47;;
7883;SDS011;3987;51.458;7.238;2022-08-01T15:04:54;0.50;;;0.50;;
7883;SDS011;3987;51.458;7.238;2022-08-01T15:07:19;0.70;;;0.50;;
7883;SDS011;3987;51.458;7.238;2022-08-01T15:09:44;0.70;;;0.70;;
7883;SDS011;3987;51.458;7.238;2022-08-01T15:12:10;0.80;;;0.80;;
7883;SDS011;3987;51.458;7.238;2022-08-01T15:14:36;0.60;;;0.60;;
7883;SDS011;3987;51.458;7.238;2022-08-01T15:19:47;0.70;;;0.70;;
7883;SDS011;3987;51.458;7.238;2022-08-01T15:22:13;0.70;;;0.70;;
7883;SDS011;3987;51.458;7.238;2022-08-01T15:24:38;0.63;;;0.63;;
7883;SDS011;3987;51.458;7.238;2022-08-01T15:27:04;1.30;;;0.90;;
7883;SDS011;3987;51.458;7.238;2022-08-01T15:29:30;0.87;;;0.70;;
7883;SDS011;3987;51.458;7.238;2022-08-01T15:31:56;0.60;;;0.60;;
7883;SDS011;3987;51.458;7.238;2022-08-01T15:34:22;1.03;;;0.97;;
7883;SDS011;3987;51.458;7.238;2022-08-01T15:36:49;0.80;;;0.80;;
7883;SDS011;3987;51.458;7.238;2022-08-01T15:39:15;1.27;;;0.80;;
7883;SDS011;3987;51.458;7.238;2022-08-01T15:41:41;0.97;;;0.97;;